createdAt,value
2023-04-07T00:02:09.347Z,94.10
2023-04-07T00:04:38.870Z,94.00
2023-04-07T00:07:05.970Z,94.20
2023-04-07T00:09:33.209Z,94.00
2023-04-07T00:12:04.253Z,94.20
2023-04-07T00:14:32.026Z,94.10
2023-04-07T00:17:01.555Z,94.00
2023-04-07T00:19:33.638Z,94.00
2023-04-07T00:22:04.522Z,94.00
2023-04-07T00:24:34.681Z,93.90
2023-04-07T00:27:03.864Z,93.90
2023-04-07T00:29:31.227Z,94.10
2023-04-07T00:31:59.378Z,94.00
2023-04-07T00:34:30.342Z,93.90
2023-04-07T00:36:58.022Z,94.10
2023-04-07T00:39:28.248Z,94.00
2023-04-07T00:42:02.594Z,94.00
2023-04-07T00:44:30.328Z,94.00
2023-04-07T00:47:00.851Z,94.10
2023-04-07T00:49:29.965Z,94.20
2023-04-07T00:52:02.902Z,94.10
2023-04-07T00:54:31.722Z,94.20
2023-04-07T00:57:03.880Z,94.10
2023-04-07T00:59:32.578Z,94.20
2023-04-07T01:02:24.987Z,94.30
2023-04-07T01:05:00.023Z,94.20
2023-04-07T01:08:04.058Z,94.20
2023-04-07T01:10:47.278Z,94.30
2023-04-07T01:13:26.508Z,94.30
2023-04-07T01:15:58.892Z,94.40
2023-04-07T01:18:34.996Z,94.40
2023-04-07T01:21:16.119Z,94.50
2023-04-07T01:24:18.341Z,94.40
2023-04-07T01:26:48.122Z,94.40
2023-04-07T01:29:43.363Z,94.30
2023-04-07T01:32:16.186Z,94.30
2023-04-07T01:34:48.734Z,94.20
2023-04-07T01:37:21.019Z,94.40
2023-04-07T01:39:48.800Z,94.30
2023-04-07T01:42:17.083Z,94.40
2023-04-07T01:44:51.237Z,94.30
2023-04-07T01:47:19.787Z,94.20
2023-04-07T01:49:51.974Z,94.20
2023-04-07T01:52:24.139Z,94.10
2023-04-07T01:54:51.708Z,94.00
2023-04-07T01:57:25.336Z,93.90
2023-04-07T01:59:54.541Z,93.80
2023-04-07T02:02:25.905Z,93.80
2023-04-07T02:05:04.361Z,93.70
2023-04-07T02:08:00.166Z,93.60
2023-04-07T02:10:39.658Z,93.60
2023-04-07T02:13:11.138Z,93.50
2023-04-07T02:15:40.315Z,93.50
2023-04-07T02:18:10.728Z,93.50
2023-04-07T02:20:38.839Z,93.40
2023-04-07T02:23:08.917Z,93.30
2023-04-07T02:25:59.265Z,93.20
2023-04-07T02:28:28.181Z,93.10
2023-04-07T02:31:01.723Z,93.00
2023-04-07T02:33:32.759Z,92.90
2023-04-07T02:36:03.215Z,92.80
2023-04-07T02:38:34.411Z,92.70
2023-04-07T02:41:02.918Z,92.70
2023-04-07T02:43:31.634Z,92.60
2023-04-07T02:45:58.765Z,92.40
2023-04-07T02:48:28.752Z,92.30
2023-04-07T02:50:56.664Z,92.30
2023-04-07T02:53:24.198Z,92.20
2023-04-07T02:55:52.141Z,92.20
2023-04-07T02:58:19.380Z,92.10
2023-04-07T03:00:51.081Z,92.10
2023-04-07T03:03:21.784Z,92.00
2023-04-07T03:05:49.542Z,92.00
2023-04-07T03:08:20.021Z,92.00
2023-04-07T03:10:48.145Z,91.90
2023-04-07T03:13:19.414Z,91.80
2023-04-07T03:15:47.485Z,91.80
2023-04-07T03:18:14.726Z,91.80
2023-04-07T03:20:42.693Z,91.80
2023-04-07T03:23:10.174Z,91.70
2023-04-07T03:25:40.185Z,91.60
2023-04-07T03:28:08.957Z,91.50
2023-04-07T03:30:39.987Z,91.50
2023-04-07T03:33:08.264Z,91.40
2023-04-07T03:35:36.305Z,91.50
2023-04-07T03:38:07.605Z,91.30
2023-04-07T03:40:38.390Z,91.40
2023-04-07T03:43:09.445Z,91.30
2023-04-07T03:45:36.820Z,91.30
2023-04-07T03:48:11.026Z,91.30
2023-04-07T03:50:40.137Z,91.20
2023-04-07T03:53:10.405Z,91.20
2023-04-07T03:55:44.602Z,91.20
2023-04-07T03:58:15.716Z,91.00
2023-04-07T04:00:43.171Z,90.90
2023-04-07T04:03:11.534Z,90.80
2023-04-07T04:05:41.612Z,90.60
2023-04-07T04:08:08.710Z,90.50
2023-04-07T04:10:36.273Z,90.30
2023-04-07T04:13:22.516Z,90.30
2023-04-07T04:15:56.663Z,90.00
2023-04-07T04:18:24.214Z,89.90
2023-04-07T04:20:51.780Z,89.80
2023-04-07T04:23:19.178Z,89.50
2023-04-07T04:25:47.532Z,89.40
2023-04-07T04:28:18.472Z,89.20
2023-04-07T04:30:51.272Z,88.90
2023-04-07T04:33:21.688Z,88.60
2023-04-07T04:35:49.261Z,88.20
2023-04-07T04:38:20.316Z,88.00
2023-04-07T04:40:47.555Z,88.00
2023-04-07T04:43:14.708Z,87.60
2023-04-07T04:45:42.257Z,87.50
2023-04-07T04:48:12.503Z,87.40
2023-04-07T04:50:40.168Z,87.00
2023-04-07T04:53:08.892Z,86.70
2023-04-07T04:55:36.464Z,86.50
2023-04-07T04:58:06.593Z,86.10
2023-04-07T05:00:35.670Z,85.80
2023-04-07T05:03:03.868Z,85.90
2023-04-07T05:05:31.171Z,85.60
2023-04-07T05:08:04.953Z,85.50
2023-04-07T05:10:38.385Z,85.40
2023-04-07T05:13:06.058Z,85.00
2023-04-07T05:15:33.352Z,85.00
2023-04-07T05:18:01.395Z,84.50
2023-04-07T05:20:28.817Z,84.00
2023-04-07T05:22:57.666Z,83.90
2023-04-07T05:25:26.768Z,83.40
2023-04-07T05:28:00.830Z,83.40
2023-04-07T05:30:28.570Z,83.00
2023-04-07T05:32:56.078Z,83.10
2023-04-07T05:35:26.941Z,82.40
2023-04-07T05:37:57.368Z,82.30
2023-04-07T05:40:25.074Z,81.60
2023-04-07T05:42:52.385Z,81.00
2023-04-07T05:45:19.896Z,80.40
2023-04-07T05:47:53.056Z,79.60
2023-04-07T05:50:20.926Z,78.70
2023-04-07T05:52:59.425Z,77.10
2023-04-07T05:55:30.329Z,76.60
2023-04-07T06:00:44.188Z,73.30
2023-04-07T06:03:15.058Z,70.40
2023-04-07T06:05:47.548Z,68.20
2023-04-07T06:08:17.149Z,65.80
2023-04-07T06:10:56.042Z,62.10
2023-04-07T06:13:32.635Z,61.20
2023-04-07T06:16:08.692Z,56.40
2023-04-07T06:18:40.920Z,53.40
2023-04-07T06:21:08.442Z,50.60
2023-04-07T06:23:39.236Z,49.80
2023-04-07T06:26:15.602Z,47.70
2023-04-07T06:28:43.163Z,46.60
2023-04-07T06:31:11.486Z,44.90
2023-04-07T06:33:41.141Z,44.10
2023-04-07T06:36:08.821Z,44.30
2023-04-07T06:38:40.545Z,43.00
2023-04-07T06:41:19.240Z,42.40
2023-04-07T06:43:53.578Z,41.10
2023-04-07T06:46:29.280Z,40.70
2023-04-07T06:49:03.991Z,39.20
2023-04-07T06:51:40.525Z,39.70
2023-04-07T06:54:13.069Z,38.30
2023-04-07T06:56:42.953Z,38.10
2023-04-07T06:59:13.987Z,38.40
2023-04-07T07:01:42.257Z,37.50
2023-04-07T07:04:17.706Z,36.90
2023-04-07T07:06:51.841Z,36.90
2023-04-07T07:09:26.247Z,36.60
2023-04-07T07:11:56.767Z,36.90
2023-04-07T07:14:24.462Z,37.20
2023-04-07T07:16:52.135Z,37.10
2023-04-07T07:19:21.850Z,36.90
2023-04-07T07:22:00.441Z,36.90
2023-04-07T07:24:31.620Z,36.30
2023-04-07T07:26:59.451Z,35.90
2023-04-07T07:29:30.105Z,35.70
2023-04-07T07:32:01.494Z,36.20
2023-04-07T07:34:56.109Z,36.10
2023-04-07T07:37:25.090Z,36.40
2023-04-07T07:39:55.046Z,35.90
2023-04-07T07:42:23.336Z,35.80
2023-04-07T07:47:42.797Z,35.00
2023-04-07T07:50:12.521Z,35.10
2023-04-07T07:52:49.959Z,34.80
2023-04-07T07:55:32.634Z,34.80
2023-04-07T07:58:32.937Z,34.40
2023-04-07T08:01:04.438Z,34.10
2023-04-07T08:03:32.402Z,33.80
2023-04-07T08:05:59.928Z,33.60
2023-04-07T08:08:28.458Z,33.40
2023-04-07T08:11:00.989Z,33.30
2023-04-07T08:13:28.834Z,33.30
2023-04-07T08:15:58.585Z,33.10
2023-04-07T08:18:25.952Z,33.00
2023-04-07T08:20:53.930Z,32.80
2023-04-07T08:23:25.245Z,32.30
2023-04-07T08:25:55.680Z,32.90
2023-04-07T08:28:24.533Z,32.20
2023-04-07T08:30:51.912Z,32.40
2023-04-07T08:33:25.691Z,32.20
2023-04-07T08:36:00.637Z,32.00
2023-04-07T08:38:28.413Z,32.30
2023-04-07T08:41:09.154Z,32.10
2023-04-07T08:43:38.872Z,31.80
2023-04-07T08:46:10.967Z,31.60
2023-04-07T08:48:39.368Z,32.30
2023-04-07T08:51:13.332Z,32.20
2023-04-07T08:54:01.246Z,32.10
2023-04-07T08:56:29.667Z,31.80
2023-04-07T08:58:57.390Z,31.50
2023-04-07T09:01:31.467Z,31.40
2023-04-07T09:03:59.232Z,31.50
2023-04-07T09:06:29.638Z,31.80
2023-04-07T09:09:04.545Z,31.70
2023-04-07T09:11:36.677Z,32.20
2023-04-07T09:14:04.157Z,32.30
2023-04-07T09:16:38.103Z,32.60
2023-04-07T09:19:06.469Z,32.60
2023-04-07T09:21:54.538Z,32.80
2023-04-07T09:24:33.476Z,32.80
2023-04-07T09:27:24.008Z,32.90
2023-04-07T09:30:21.515Z,33.20
2023-04-07T09:32:51.295Z,32.80
2023-04-07T09:35:21.465Z,33.30
2023-04-07T09:38:10.008Z,33.40
2023-04-07T09:40:43.859Z,33.30
2023-04-07T09:43:26.506Z,33.40
2023-04-07T09:46:19.017Z,33.70
2023-04-07T09:48:47.481Z,33.80
2023-04-07T09:51:17.663Z,34.20
2023-04-07T09:53:54.927Z,34.50
2023-04-07T09:56:25.112Z,34.50
2023-04-07T09:58:52.657Z,34.30
2023-04-07T10:01:26.766Z,34.50
2023-04-07T10:03:59.759Z,34.50
2023-04-07T10:06:28.065Z,34.50
2023-04-07T10:08:58.127Z,34.50
2023-04-07T10:11:27.877Z,34.50
2023-04-07T10:13:58.403Z,34.70
2023-04-07T10:16:26.994Z,34.70
2023-04-07T10:18:57.573Z,34.20
2023-04-07T10:21:27.991Z,34.40
2023-04-07T10:24:29.166Z,34.50
2023-04-07T10:27:09.567Z,34.60
2023-04-07T10:29:49.362Z,34.40
2023-04-07T10:32:20.531Z,34.40
2023-04-07T10:34:59.029Z,35.00
2023-04-07T10:37:30.409Z,35.30
2023-04-07T10:40:19.567Z,35.40
2023-04-07T10:42:53.092Z,35.60
2023-04-07T10:46:03.765Z,35.70
2023-04-07T10:48:33.598Z,36.00
2023-04-07T10:51:07.745Z,36.40
2023-04-07T10:53:35.982Z,36.80
2023-04-07T10:56:06.175Z,37.60
2023-04-07T10:58:34.784Z,38.10
2023-04-07T11:01:08.606Z,38.40
2023-04-07T11:04:05.368Z,38.60
2023-04-07T11:06:33.866Z,38.80
2023-04-07T11:09:21.311Z,39.10
2023-04-07T11:11:49.993Z,39.60
2023-04-07T11:14:32.485Z,39.70
2023-04-07T11:17:05.886Z,40.00
2023-04-07T11:19:53.221Z,39.90
2023-04-07T11:22:30.239Z,40.70
2023-04-07T11:25:01.804Z,40.70
2023-04-07T11:27:30.826Z,40.90
2023-04-07T11:30:01.880Z,41.10
2023-04-07T11:32:31.244Z,41.00
2023-04-07T11:35:01.725Z,41.20
2023-04-07T11:37:37.755Z,41.20
2023-04-07T11:40:05.719Z,41.50
2023-04-07T11:42:38.496Z,41.80
2023-04-07T11:45:08.403Z,41.70
2023-04-07T11:47:43.195Z,41.60
2023-04-07T11:50:11.706Z,41.50
2023-04-07T11:52:50.945Z,41.80
2023-04-07T11:55:28.062Z,41.80
2023-04-07T11:57:56.621Z,41.80
2023-04-07T12:00:24.144Z,41.80
2023-04-07T12:02:51.985Z,41.60
2023-04-07T12:05:19.518Z,41.50
2023-04-07T12:07:57.147Z,41.60
2023-04-07T12:10:32.633Z,40.50
2023-04-07T12:12:59.965Z,41.10
2023-04-07T12:15:30.009Z,41.30
2023-04-07T12:18:00.680Z,41.40
2023-04-07T12:20:30.210Z,41.40
2023-04-07T12:23:01.135Z,41.20
2023-04-07T12:25:32.274Z,41.20
2023-04-07T12:28:03.352Z,41.30
2023-04-07T12:30:34.324Z,41.10
2023-04-07T12:33:03.764Z,40.90
2023-04-07T12:35:38.278Z,40.40
2023-04-07T12:38:05.923Z,40.60
2023-04-07T12:40:39.069Z,41.10
2023-04-07T12:43:11.493Z,41.20
2023-04-07T12:45:39.037Z,41.20
2023-04-07T12:48:06.973Z,41.40
2023-04-07T12:50:36.724Z,41.50
2023-04-07T12:53:05.869Z,41.60
2023-04-07T12:55:34.109Z,41.40
2023-04-07T12:58:01.467Z,41.30
2023-04-07T13:00:31.352Z,41.60
2023-04-07T13:02:58.850Z,41.60
2023-04-07T13:05:29.961Z,41.30
2023-04-07T13:08:00.844Z,41.40
2023-04-07T13:10:28.199Z,41.70
2023-04-07T13:12:58.414Z,41.70
2023-04-07T13:15:34.848Z,41.50
2023-04-07T13:18:12.889Z,42.00
2023-04-07T13:21:26.458Z,42.10
2023-04-07T13:24:05.222Z,42.10
2023-04-07T13:26:35.216Z,41.90
2023-04-07T13:29:03.967Z,41.70
2023-04-07T13:31:36.052Z,41.60
2023-04-07T13:34:05.741Z,41.30
2023-04-07T13:36:33.246Z,41.10
2023-04-07T13:39:05.312Z,40.40
2023-04-07T13:41:32.545Z,40.60
2023-04-07T13:44:03.920Z,41.10
2023-04-07T13:46:34.217Z,41.20
2023-04-07T13:49:11.946Z,41.40
2023-04-07T13:51:39.172Z,41.30
2023-04-07T13:54:06.500Z,41.20
2023-04-07T13:56:35.673Z,40.80
2023-04-07T13:59:04.021Z,40.80
2023-04-07T14:01:33.601Z,40.50
2023-04-07T14:04:04.663Z,40.70
2023-04-07T14:06:32.655Z,40.30
2023-04-07T14:09:10.962Z,40.40
2023-04-07T14:11:39.051Z,40.50
2023-04-07T14:14:14.344Z,40.50
2023-04-07T14:16:42.284Z,40.20
2023-04-07T14:19:15.646Z,40.30
2023-04-07T14:21:45.754Z,40.20
2023-04-07T14:24:16.315Z,40.30
2023-04-07T14:26:44.528Z,40.50
2023-04-07T14:29:23.227Z,40.70
2023-04-07T14:31:51.741Z,41.20
2023-04-07T14:34:19.028Z,41.30
2023-04-07T14:36:57.241Z,41.70
2023-04-07T14:39:26.336Z,41.80
2023-04-07T14:41:54.556Z,42.20
2023-04-07T14:44:22.480Z,42.50
2023-04-07T14:46:50.548Z,42.50
2023-04-07T14:49:18.335Z,42.70
2023-04-07T14:51:49.138Z,43.00
2023-04-07T14:54:16.882Z,43.00
2023-04-07T14:56:45.058Z,43.10
2023-04-07T14:59:12.230Z,43.10
2023-04-07T15:01:40.631Z,43.10
2023-04-07T15:04:11.579Z,43.40
2023-04-07T15:06:42.658Z,43.70
2023-04-07T15:09:15.529Z,43.70
2023-04-07T15:11:48.134Z,44.10
2023-04-07T15:14:18.680Z,44.10
2023-04-07T15:16:55.945Z,44.40
2023-04-07T15:19:31.662Z,44.50
2023-04-07T15:22:02.268Z,44.80
2023-04-07T15:24:32.415Z,44.80
2023-04-07T15:26:59.583Z,44.90
2023-04-07T15:29:27.027Z,44.90
2023-04-07T15:31:59.911Z,44.90
2023-04-07T15:34:29.661Z,45.30
2023-04-07T15:37:00.696Z,45.40
2023-04-07T15:39:34.387Z,45.70
2023-04-07T15:42:04.105Z,45.60
2023-04-07T15:44:39.616Z,45.70
2023-04-07T15:47:07.474Z,45.80
2023-04-07T15:49:37.243Z,45.70
2023-04-07T15:52:05.964Z,45.70
2023-04-07T15:54:41.879Z,45.50
2023-04-07T15:57:09.263Z,45.80
2023-04-07T15:59:36.608Z,45.90
2023-04-07T16:02:04.023Z,46.60
2023-04-07T16:04:33.926Z,46.70
2023-04-07T16:07:02.404Z,46.70
2023-04-07T16:09:33.128Z,47.10
2023-04-07T16:12:00.693Z,46.80
2023-04-07T16:14:29.504Z,47.10
2023-04-07T16:17:01.412Z,47.00
2023-04-07T16:19:31.692Z,47.20
2023-04-07T16:22:02.206Z,47.60
2023-04-07T16:24:35.518Z,47.50
2023-04-07T16:27:06.385Z,47.80
2023-04-07T16:29:39.478Z,47.70
2023-04-07T16:32:07.263Z,47.90
2023-04-07T16:34:35.412Z,48.00
2023-04-07T16:37:03.390Z,48.20
2023-04-07T16:39:38.461Z,48.90
2023-04-07T16:42:06.330Z,49.30
2023-04-07T16:44:34.774Z,49.80
2023-04-07T16:47:03.412Z,50.10
2023-04-07T16:49:30.898Z,50.40
2023-04-07T16:52:01.135Z,50.80
2023-04-07T16:54:30.805Z,50.90
2023-04-07T16:56:58.467Z,51.30
2023-04-07T16:59:28.272Z,51.50
2023-04-07T17:01:58.994Z,51.50
2023-04-07T17:04:26.387Z,51.70
2023-04-07T17:06:59.299Z,51.90
2023-04-07T17:09:26.640Z,52.30
2023-04-07T17:11:54.056Z,52.50
2023-04-07T17:14:30.970Z,52.70
2023-04-07T17:16:58.370Z,53.00
2023-04-07T17:19:30.025Z,53.20
2023-04-07T17:21:57.608Z,53.10
2023-04-07T17:24:24.960Z,53.30
2023-04-07T17:26:52.271Z,53.80
2023-04-07T17:29:21.080Z,53.60
2023-04-07T17:31:49.855Z,54.00
2023-04-07T17:34:19.666Z,54.00
2023-04-07T17:36:47.038Z,54.00
2023-04-07T17:39:16.466Z,54.20
2023-04-07T17:41:47.397Z,54.40
2023-04-07T17:44:14.795Z,54.30
2023-04-07T17:46:44.840Z,54.40
2023-04-07T17:49:14.244Z,54.60
2023-04-07T17:51:46.898Z,54.90
2023-04-07T17:54:16.935Z,55.30
2023-04-07T17:59:53.707Z,56.10
2023-04-07T18:02:21.351Z,56.10
2023-04-07T18:04:52.624Z,56.30
2023-04-07T18:07:21.620Z,56.90
2023-04-07T18:09:54.732Z,57.50
2023-04-07T18:12:26.870Z,57.20
2023-04-07T18:14:54.517Z,57.40
2023-04-07T18:17:21.760Z,57.50
2023-04-07T18:19:48.946Z,57.70
2023-04-07T18:22:16.758Z,57.90
2023-04-07T18:24:48.885Z,58.10
2023-04-07T18:27:19.423Z,58.00
2023-04-07T18:29:46.662Z,58.40
2023-04-07T18:32:14.352Z,58.30
2023-04-07T18:34:56.915Z,58.70
2023-04-07T18:37:24.950Z,59.00
2023-04-07T18:39:55.146Z,59.10
2023-04-07T18:42:23.486Z,59.10
2023-04-07T18:44:51.804Z,59.00
2023-04-07T18:47:18.951Z,59.00
2023-04-07T18:49:46.189Z,59.20
2023-04-07T18:52:13.423Z,58.90
2023-04-07T18:54:40.931Z,59.40
2023-04-07T18:57:11.729Z,59.70
2023-04-07T18:59:39.440Z,60.30
2023-04-07T19:02:07.641Z,60.40
2023-04-07T19:04:35.050Z,60.30
2023-04-07T19:07:07.771Z,60.60
2023-04-07T19:09:50.074Z,60.50
2023-04-07T19:12:22.749Z,60.80
2023-04-07T19:14:49.973Z,61.30
2023-04-07T19:17:17.242Z,61.30
2023-04-07T19:19:49.805Z,62.20
2023-04-07T19:22:17.183Z,62.20
2023-04-07T19:24:46.366Z,62.40
2023-04-07T19:27:18.337Z,62.40
2023-04-07T19:29:48.737Z,62.50
2023-04-07T19:32:19.396Z,62.30
2023-04-07T19:34:46.819Z,62.40
2023-04-07T19:37:17.090Z,62.60
2023-04-07T19:40:01.511Z,62.70
2023-04-07T19:42:29.794Z,62.70
2023-04-07T19:45:00.256Z,63.10
2023-04-07T19:47:36.188Z,63.70
2023-04-07T19:50:04.395Z,64.50
2023-04-07T19:52:34.756Z,64.30
2023-04-07T19:55:09.668Z,65.20
2023-04-07T19:57:42.102Z,65.40
2023-04-07T20:00:12.893Z,65.30
2023-04-07T20:02:40.405Z,65.60
2023-04-07T20:05:09.706Z,65.70
2023-04-07T20:07:40.564Z,66.20
2023-04-07T20:10:08.952Z,66.30
2023-04-07T20:12:55.603Z,66.10
2023-04-07T20:15:27.078Z,66.30
2023-04-07T20:17:54.679Z,66.50
2023-04-07T20:20:24.967Z,66.50
2023-04-07T20:22:59.901Z,66.80
2023-04-07T20:25:27.210Z,66.80
2023-04-07T20:27:55.125Z,67.00
2023-04-07T20:30:22.423Z,66.90
2023-04-07T20:32:52.182Z,66.90
2023-04-07T20:35:22.665Z,66.90
2023-04-07T20:37:50.099Z,66.90
2023-04-07T20:40:20.907Z,66.80
2023-04-07T20:42:48.453Z,67.00
2023-04-07T20:45:20.115Z,67.00
2023-04-07T20:47:51.173Z,67.10
2023-04-07T20:50:18.966Z,67.00
2023-04-07T20:52:46.332Z,67.00
2023-04-07T20:55:16.532Z,67.00
2023-04-07T20:57:50.672Z,67.00
2023-04-07T21:00:19.127Z,67.10
2023-04-07T21:02:49.801Z,67.10
2023-04-07T21:05:17.362Z,67.20
2023-04-07T21:07:47.653Z,67.40
2023-04-07T21:10:19.517Z,67.50
2023-04-07T21:12:46.970Z,67.20
2023-04-07T21:15:17.296Z,67.20
2023-04-07T21:17:45.028Z,67.20
2023-04-07T21:20:13.289Z,67.20
2023-04-07T21:22:40.585Z,67.20
2023-04-07T21:25:14.431Z,67.00
2023-04-07T21:27:41.656Z,67.20
2023-04-07T21:30:15.487Z,67.10
2023-04-07T21:32:49.037Z,67.20
2023-04-07T21:35:16.976Z,67.10
2023-04-07T21:37:44.114Z,67.10
2023-04-07T21:40:12.005Z,67.00
2023-04-07T21:42:39.283Z,67.10
2023-04-07T21:45:10.077Z,67.10
2023-04-07T21:47:37.207Z,66.90
2023-04-07T21:50:05.148Z,66.70
2023-04-07T21:52:39.543Z,66.70
2023-04-07T21:55:10.879Z,66.60
2023-04-07T21:57:47.657Z,66.50
2023-04-07T22:00:18.279Z,66.40
2023-04-07T22:02:48.707Z,66.20
2023-04-07T22:05:17.035Z,66.10
2023-04-07T22:07:48.410Z,66.10
2023-04-07T22:10:16.131Z,65.80
2023-04-07T22:12:50.662Z,65.70
2023-04-07T22:15:18.460Z,65.40
2023-04-07T22:17:46.286Z,65.40
2023-04-07T22:20:13.675Z,64.80
2023-04-07T22:22:47.383Z,64.70
2023-04-07T22:25:15.315Z,65.00
2023-04-07T22:27:42.477Z,64.60
2023-04-07T22:30:11.037Z,64.50
2023-04-07T22:32:42.768Z,64.20
2023-04-07T22:35:12.967Z,64.30
2023-04-07T22:37:40.651Z,64.40
2023-04-07T22:40:09.608Z,64.00
2023-04-07T22:42:46.032Z,64.30
2023-04-07T22:45:20.978Z,64.20
2023-04-07T22:47:48.499Z,64.20
2023-04-07T22:50:17.114Z,64.30
2023-04-07T22:52:46.934Z,64.40
2023-04-07T22:55:15.052Z,64.30
2023-04-07T22:57:45.328Z,64.20
2023-04-07T23:00:14.552Z,64.40
2023-04-07T23:02:44.783Z,64.30
2023-04-07T23:05:12.661Z,64.40
2023-04-07T23:07:39.994Z,64.60
2023-04-07T23:10:08.391Z,64.60
2023-04-07T23:12:36.342Z,64.70
2023-04-07T23:15:03.801Z,64.80
2023-04-07T23:17:38.792Z,65.10
2023-04-07T23:20:07.461Z,65.30
2023-04-07T23:22:54.090Z,65.40
2023-04-07T23:25:22.001Z,65.40
2023-04-07T23:27:49.606Z,65.40
2023-04-07T23:30:19.689Z,65.70
2023-04-07T23:32:47.054Z,65.80
2023-04-07T23:35:16.157Z,65.90
2023-04-07T23:37:47.335Z,66.00
2023-04-07T23:40:16.714Z,66.10
2023-04-07T23:42:44.491Z,66.10
2023-04-07T23:45:12.034Z,66.10
2023-04-07T23:47:39.260Z,66.20
2023-04-07T23:50:09.536Z,66.20
2023-04-07T23:53:02.955Z,66.10
2023-04-07T23:55:30.923Z,66.20
2023-04-07T23:57:57.938Z,66.20
